CFG7KY LGKR-EDDH
Flight info
| Callsign | CFG7KY |
|---|---|
| Flight time | N/A |
| Altitude | 36000 |
| Route | OLGAT DCT ABADI DCT CRAYE DCT GISAM DCT SIPAL DCT UNIPA DCT GORPA DCT LAMSI DCT ARMUT DCT KENIG DCT ABGUS DCT DIRBO/N0394F230 T902 RARUP RARUP6A |
| Aircraft | A321/M-SDE3FGHIJ1LORVWXYZ/LB1D1 |
Departure
| Time | 2026-05-06 09:45 |
|---|---|
| Airport | Corfu Ioannis Kapodistrias International Airport (LGKR) |
Arrival
| Time | N/A |
|---|---|
| Airport | Hamburg Helmut Schmidt Airport (EDDH) |
| Time | Latitude | Longitude | Altitude | Speed | Heading |
|---|---|---|---|---|---|
| 2026-05-06 09:14 | 39.60765 | 19.91334 | 9 ft | 0 kts | 78° |
| 2026-05-06 09:38 | 39.60764 | 19.91327 | 9 ft | 4 kts | 78° |
| 2026-05-06 09:38 | 39.60759 | 19.91293 | 10 ft | 4 kts | 78° |
| 2026-05-06 09:38 | 39.60752 | 19.91259 | 11 ft | 4 kts | 68° |
| 2026-05-06 09:39 | 39.60739 | 19.91229 | 11 ft | 4 kts | 48° |
| 2026-05-06 09:39 | 39.60720 | 19.91211 | 10 ft | 4 kts | 359° |
| 2026-05-06 09:39 | 39.60709 | 19.91212 | 11 ft | 1 kts | 346° |
| 2026-05-06 09:39 | 39.60709 | 19.91213 | 11 ft | 0 kts | 346° |
| 2026-05-06 09:42 | 39.60749 | 19.91200 | 10 ft | 12 kts | 346° |
| 2026-05-06 09:42 | 39.60858 | 19.91175 | 9 ft | 17 kts | 350° |
| 2026-05-06 09:42 | 39.60973 | 19.91149 | 9 ft | 16 kts | 349° |
| 2026-05-06 09:43 | 39.61079 | 19.91121 | 10 ft | 15 kts | 348° |
| 2026-05-06 09:43 | 39.61172 | 19.91094 | 10 ft | 12 kts | 347° |
| 2026-05-06 09:43 | 39.61221 | 19.91026 | 10 ft | 10 kts | 283° |
| 2026-05-06 09:43 | 39.61198 | 19.90961 | 10 ft | 8 kts | 199° |
| 2026-05-06 09:44 | 39.61168 | 19.90965 | 10 ft | 1 kts | 171° |
| 2026-05-06 09:44 | 39.61151 | 19.90968 | 10 ft | 9 kts | 171° |
| 2026-05-06 09:44 | 39.60923 | 19.91024 | 10 ft | 68 kts | 168° |
| 2026-05-06 09:44 | 39.60248 | 19.91198 | 13 ft | 127 kts | 169° |
| 2026-05-06 09:45 | 39.59268 | 19.91475 | 214 ft | 152 kts | 165° |
| 2026-05-06 09:45 | 39.58280 | 19.91872 | 824 ft | 151 kts | 149° |
| 2026-05-06 09:45 | 39.57563 | 19.92867 | 1375 ft | 157 kts | 118° |
| 2026-05-06 09:45 | 39.57408 | 19.94356 | 1596 ft | 183 kts | 79° |
| 2026-05-06 09:46 | 39.58121 | 19.95792 | 1778 ft | 207 kts | 35° |
| 2026-05-06 09:46 | 39.59552 | 19.96211 | 2076 ft | 222 kts | 349° |
| 2026-05-06 09:46 | 39.60900 | 19.95204 | 2512 ft | 232 kts | 305° |
| 2026-05-06 09:46 | 39.61407 | 19.93293 | 3256 ft | 225 kts | 269° |
| 2026-05-06 09:47 | 39.61262 | 19.91302 | 4076 ft | 220 kts | 257° |
| 2026-05-06 09:47 | 39.60871 | 19.89383 | 4690 ft | 228 kts | 249° |
| 2026-05-06 09:47 | 39.60285 | 19.87416 | 5066 ft | 246 kts | 247° |
| 2026-05-06 09:47 | 39.59602 | 19.85306 | 5547 ft | 260 kts | 248° |
| 2026-05-06 09:48 | 39.58923 | 19.83082 | 6150 ft | 270 kts | 249° |
| 2026-05-06 09:48 | 39.58307 | 19.80750 | 6852 ft | 273 kts | 259° |
| 2026-05-06 09:48 | 39.58313 | 19.78313 | 7698 ft | 272 kts | 282° |
| 2026-05-06 09:48 | 39.59075 | 19.76079 | 8466 ft | 276 kts | 305° |
| 2026-05-06 09:49 | 39.60495 | 19.74381 | 9181 ft | 281 kts | 322° |
| 2026-05-06 09:49 | 39.62084 | 19.72897 | 9998 ft | 281 kts | 322° |
| 2026-05-06 09:49 | 39.63670 | 19.71430 | 10761 ft | 281 kts | 322° |
| 2026-05-06 09:49 | 39.65317 | 19.69903 | 11030 ft | 302 kts | 322° |
| 2026-05-06 09:50 | 39.67087 | 19.68249 | 11151 ft | 325 kts | 322° |
| 2026-05-06 09:50 | 39.68949 | 19.66504 | 11311 ft | 344 kts | 322° |
| 2026-05-06 09:50 | 39.70914 | 19.64660 | 11815 ft | 352 kts | 322° |
| 2026-05-06 09:50 | 39.72907 | 19.62788 | 12456 ft | 355 kts | 322° |
| 2026-05-06 09:51 | 39.74917 | 19.60899 | 13123 ft | 358 kts | 322° |
| 2026-05-06 09:51 | 39.76942 | 19.58992 | 13787 ft | 361 kts | 322° |
| 2026-05-06 09:51 | 39.78980 | 19.57063 | 14382 ft | 364 kts | 322° |
| 2026-05-06 09:51 | 39.81034 | 19.55116 | 14948 ft | 367 kts | 322° |
| 2026-05-06 09:52 | 39.83105 | 19.53157 | 15510 ft | 370 kts | 322° |
| 2026-05-06 09:52 | 39.85198 | 19.51182 | 16058 ft | 373 kts | 322° |
| 2026-05-06 09:52 | 39.87277 | 19.49216 | 16597 ft | 376 kts | 322° |
| 2026-05-06 09:52 | 39.89400 | 19.47205 | 17143 ft | 379 kts | 322° |
| 2026-05-06 09:53 | 39.91542 | 19.45172 | 17675 ft | 382 kts | 322° |
| 2026-05-06 09:53 | 39.93699 | 19.43123 | 18178 ft | 386 kts | 322° |
| 2026-05-06 09:53 | 39.95877 | 19.41052 | 18641 ft | 389 kts | 322° |
| 2026-05-06 09:53 | 39.98069 | 19.38963 | 19093 ft | 391 kts | 322° |
| 2026-05-06 09:54 | 40.00273 | 19.36864 | 19551 ft | 394 kts | 322° |
| 2026-05-06 09:54 | 40.02493 | 19.34751 | 19991 ft | 396 kts | 322° |
| 2026-05-06 09:54 | 40.04724 | 19.32625 | 20454 ft | 398 kts | 322° |
| 2026-05-06 09:54 | 40.06939 | 19.30509 | 20887 ft | 401 kts | 322° |
| 2026-05-06 09:55 | 40.09194 | 19.28355 | 21318 ft | 403 kts | 322° |
| 2026-05-06 09:55 | 40.11463 | 19.26186 | 21754 ft | 405 kts | 322° |
| 2026-05-06 09:55 | 40.13746 | 19.24006 | 22191 ft | 408 kts | 322° |
| 2026-05-06 09:55 | 40.16042 | 19.21809 | 22632 ft | 410 kts | 321° |
| 2026-05-06 09:56 | 40.18347 | 19.19600 | 23053 ft | 413 kts | 321° |
| 2026-05-06 09:56 | 40.20672 | 19.17372 | 23467 ft | 416 kts | 321° |
| 2026-05-06 09:56 | 40.23012 | 19.15122 | 23842 ft | 418 kts | 321° |
| 2026-05-06 09:56 | 40.25328 | 19.12890 | 24179 ft | 420 kts | 321° |
| 2026-05-06 09:57 | 40.27689 | 19.10616 | 24516 ft | 423 kts | 321° |
| 2026-05-06 09:57 | 40.30061 | 19.08333 | 24854 ft | 425 kts | 321° |
| 2026-05-06 09:57 | 40.32449 | 19.06032 | 25193 ft | 427 kts | 321° |
| 2026-05-06 09:57 | 40.34846 | 19.03720 | 25535 ft | 429 kts | 321° |
| 2026-05-06 09:58 | 40.37251 | 19.01396 | 25872 ft | 431 kts | 321° |
| 2026-05-06 09:58 | 40.39670 | 18.99058 | 26209 ft | 433 kts | 321° |
| 2026-05-06 09:58 | 40.42099 | 18.96711 | 26548 ft | 434 kts | 321° |
| 2026-05-06 09:58 | 40.44505 | 18.94387 | 26870 ft | 436 kts | 321° |
| 2026-05-06 09:59 | 40.46952 | 18.92018 | 27174 ft | 438 kts | 321° |
| 2026-05-06 09:59 | 40.49408 | 18.89639 | 27486 ft | 440 kts | 321° |
| 2026-05-06 09:59 | 40.51875 | 18.87245 | 27778 ft | 442 kts | 321° |
| 2026-05-06 09:59 | 40.54352 | 18.84838 | 28076 ft | 444 kts | 321° |
| 2026-05-06 10:00 | 40.56841 | 18.82415 | 28364 ft | 446 kts | 321° |
| 2026-05-06 10:00 | 40.59336 | 18.79982 | 28674 ft | 448 kts | 321° |
| 2026-05-06 10:00 | 40.61842 | 18.77538 | 28969 ft | 449 kts | 321° |
| 2026-05-06 10:00 | 40.64360 | 18.75082 | 29237 ft | 451 kts | 321° |
| 2026-05-06 10:01 | 40.66884 | 18.72621 | 29599 ft | 452 kts | 321° |
| 2026-05-06 10:01 | 40.69411 | 18.70159 | 29963 ft | 451 kts | 321° |
| 2026-05-06 10:01 | 40.71896 | 18.67732 | 30304 ft | 451 kts | 321° |
| 2026-05-06 10:01 | 40.74417 | 18.65272 | 30622 ft | 450 kts | 322° |
| 2026-05-06 10:02 | 40.77089 | 18.63110 | 30975 ft | 452 kts | 329° |
| 2026-05-06 10:02 | 40.79887 | 18.61218 | 31324 ft | 451 kts | 330° |
| 2026-05-06 10:02 | 40.82676 | 18.59333 | 31682 ft | 450 kts | 329° |
| 2026-05-06 10:02 | 40.85459 | 18.57452 | 32045 ft | 449 kts | 329° |
| 2026-05-06 10:03 | 40.88234 | 18.55571 | 32403 ft | 448 kts | 329° |
| 2026-05-06 10:03 | 40.91000 | 18.53691 | 32774 ft | 446 kts | 329° |
| 2026-05-06 10:03 | 40.93721 | 18.51837 | 33124 ft | 446 kts | 329° |
| 2026-05-06 10:03 | 40.96473 | 18.49961 | 33478 ft | 445 kts | 329° |
| 2026-05-06 10:04 | 40.99216 | 18.48088 | 33824 ft | 444 kts | 329° |
| 2026-05-06 10:04 | 41.01956 | 18.46214 | 34160 ft | 443 kts | 329° |
| 2026-05-06 10:04 | 41.04690 | 18.44345 | 34458 ft | 442 kts | 329° |
| 2026-05-06 10:04 | 41.07417 | 18.42477 | 34743 ft | 441 kts | 329° |
| 2026-05-06 10:05 | 41.10147 | 18.40604 | 34986 ft | 442 kts | 329° |
| 2026-05-06 10:05 | 41.12875 | 18.38732 | 35248 ft | 442 kts | 329° |
| 2026-05-06 10:05 | 41.15604 | 18.36861 | 35519 ft | 441 kts | 329° |
| 2026-05-06 10:05 | 41.18332 | 18.34991 | 35792 ft | 441 kts | 329° |
| 2026-05-06 10:06 | 41.21014 | 18.33146 | 36024 ft | 441 kts | 329° |
| 2026-05-06 10:06 | 41.23732 | 18.31272 | 36090 ft | 440 kts | 329° |
| 2026-05-06 10:06 | 41.29171 | 18.27535 | 36092 ft | 439 kts | 329° |
| 2026-05-06 10:07 | 41.34596 | 18.23793 | 36097 ft | 439 kts | 329° |
| 2026-05-06 10:07 | 41.40018 | 18.20045 | 36094 ft | 439 kts | 329° |
| 2026-05-06 10:08 | 41.45401 | 18.16310 | 36092 ft | 439 kts | 329° |
| 2026-05-06 10:08 | 41.50784 | 18.12473 | 36087 ft | 437 kts | 323° |
| 2026-05-06 10:09 | 41.55841 | 18.08000 | 36090 ft | 436 kts | 323° |
| 2026-05-06 10:09 | 41.60894 | 18.03515 | 36088 ft | 436 kts | 323° |
| 2026-05-06 10:10 | 41.65914 | 17.99061 | 36084 ft | 436 kts | 323° |
| 2026-05-06 10:10 | 41.70970 | 17.94566 | 36084 ft | 436 kts | 322° |
| 2026-05-06 10:11 | 41.76019 | 17.90060 | 36084 ft | 436 kts | 322° |
| 2026-05-06 10:11 | 41.81067 | 17.85543 | 36073 ft | 436 kts | 322° |
| 2026-05-06 10:12 | 41.86080 | 17.81057 | 36075 ft | 436 kts | 322° |
| 2026-05-06 10:12 | 41.91136 | 17.76572 | 36077 ft | 437 kts | 326° |
| 2026-05-06 10:13 | 41.96714 | 17.73184 | 36076 ft | 443 kts | 334° |
| 2026-05-06 10:13 | 42.02425 | 17.70048 | 36076 ft | 444 kts | 334° |
| 2026-05-06 10:14 | 42.08143 | 17.66887 | 36071 ft | 444 kts | 333° |
| 2026-05-06 10:14 | 42.13816 | 17.63737 | 36076 ft | 444 kts | 333° |
| 2026-05-06 10:15 | 42.19533 | 17.60563 | 36071 ft | 444 kts | 333° |
| 2026-05-06 10:15 | 42.25250 | 17.57385 | 36070 ft | 444 kts | 333° |
| 2026-05-06 10:16 | 42.30967 | 17.54193 | 36071 ft | 444 kts | 333° |
| 2026-05-06 10:16 | 42.36640 | 17.51010 | 36079 ft | 444 kts | 333° |
| 2026-05-06 10:17 | 42.42355 | 17.47811 | 36079 ft | 445 kts | 333° |
| 2026-05-06 10:17 | 42.48071 | 17.44619 | 36070 ft | 445 kts | 333° |
| 2026-05-06 10:18 | 42.53780 | 17.41413 | 36070 ft | 444 kts | 333° |
| 2026-05-06 10:18 | 42.59450 | 17.38220 | 36071 ft | 445 kts | 333° |
| 2026-05-06 10:19 | 42.65169 | 17.34994 | 36073 ft | 445 kts | 333° |
| 2026-05-06 10:19 | 42.70891 | 17.31761 | 36071 ft | 445 kts | 333° |
| 2026-05-06 10:20 | 42.76599 | 17.28528 | 36071 ft | 444 kts | 333° |
| 2026-05-06 10:20 | 42.82269 | 17.25309 | 36070 ft | 444 kts | 333° |
| 2026-05-06 10:21 | 42.87974 | 17.22065 | 36073 ft | 444 kts | 333° |
| 2026-05-06 10:21 | 42.93679 | 17.18814 | 36073 ft | 444 kts | 333° |
| 2026-05-06 10:22 | 42.99373 | 17.15559 | 36068 ft | 444 kts | 333° |
| 2026-05-06 10:22 | 43.05063 | 17.12302 | 36070 ft | 443 kts | 333° |
| 2026-05-06 10:23 | 43.10717 | 17.09064 | 36070 ft | 443 kts | 333° |
| 2026-05-06 10:23 | 43.16380 | 17.05732 | 36070 ft | 442 kts | 331° |
| 2026-05-06 10:24 | 43.21927 | 17.02107 | 36071 ft | 442 kts | 329° |
| 2026-05-06 10:24 | 43.27447 | 16.98387 | 36066 ft | 442 kts | 330° |
| 2026-05-06 10:25 | 43.32952 | 16.94740 | 36070 ft | 442 kts | 330° |
| 2026-05-06 10:25 | 43.38509 | 16.91108 | 36055 ft | 442 kts | 330° |
| 2026-05-06 10:26 | 43.44058 | 16.87481 | 36067 ft | 442 kts | 330° |
| 2026-05-06 10:26 | 43.49603 | 16.83827 | 36068 ft | 442 kts | 330° |
| 2026-05-06 10:27 | 43.55110 | 16.80193 | 36061 ft | 442 kts | 330° |
| 2026-05-06 10:27 | 43.60644 | 16.76522 | 36047 ft | 441 kts | 330° |
| 2026-05-06 10:28 | 43.66176 | 16.72845 | 36038 ft | 441 kts | 330° |
| 2026-05-06 10:28 | 43.71711 | 16.69170 | 36050 ft | 442 kts | 330° |
| 2026-05-06 10:29 | 43.77263 | 16.65483 | 36057 ft | 443 kts | 329° |
| 2026-05-06 10:29 | 43.82836 | 16.61771 | 36033 ft | 444 kts | 329° |
| 2026-05-06 10:30 | 43.88369 | 16.58077 | 36034 ft | 444 kts | 329° |
| 2026-05-06 10:30 | 43.93936 | 16.54340 | 36028 ft | 445 kts | 329° |
| 2026-05-06 10:31 | 43.99507 | 16.50597 | 36027 ft | 445 kts | 329° |
| 2026-05-06 10:31 | 44.05080 | 16.46874 | 36026 ft | 445 kts | 330° |
| 2026-05-06 10:32 | 44.10689 | 16.43331 | 36019 ft | 447 kts | 331° |
| 2026-05-06 10:32 | 44.16381 | 16.39829 | 36012 ft | 447 kts | 331° |
| 2026-05-06 10:33 | 44.22056 | 16.36297 | 36011 ft | 447 kts | 330° |
| 2026-05-06 10:33 | 44.27715 | 16.32715 | 36011 ft | 446 kts | 330° |
| 2026-05-06 10:34 | 44.33367 | 16.29121 | 36008 ft | 447 kts | 330° |
| 2026-05-06 10:34 | 44.38984 | 16.25543 | 36001 ft | 447 kts | 330° |
| 2026-05-06 10:35 | 44.44656 | 16.21943 | 36004 ft | 448 kts | 330° |
| 2026-05-06 10:35 | 44.50332 | 16.18333 | 35999 ft | 448 kts | 329° |
| 2026-05-06 10:36 | 44.56001 | 16.14708 | 36000 ft | 448 kts | 329° |
| 2026-05-06 10:36 | 44.61629 | 16.11105 | 35997 ft | 448 kts | 329° |
| 2026-05-06 10:37 | 44.67291 | 16.07477 | 35997 ft | 447 kts | 330° |
| 2026-05-06 10:37 | 44.72963 | 16.03835 | 35983 ft | 448 kts | 329° |
| 2026-05-06 10:38 | 44.78637 | 16.00182 | 35986 ft | 448 kts | 329° |
| 2026-05-06 10:38 | 44.84307 | 15.96523 | 35980 ft | 449 kts | 329° |
| 2026-05-06 10:39 | 44.89940 | 15.92883 | 35970 ft | 448 kts | 329° |
| 2026-05-06 10:39 | 44.95602 | 15.89210 | 35971 ft | 448 kts | 329° |
| 2026-05-06 10:40 | 45.01265 | 15.85536 | 35988 ft | 448 kts | 329° |
| 2026-05-06 10:40 | 45.06927 | 15.81851 | 35965 ft | 448 kts | 329° |
| 2026-05-06 10:41 | 45.12579 | 15.78151 | 35958 ft | 447 kts | 329° |
| 2026-05-06 10:41 | 45.18183 | 15.74479 | 35958 ft | 447 kts | 329° |
| 2026-05-06 10:42 | 45.23833 | 15.70780 | 35952 ft | 447 kts | 329° |
| 2026-05-06 10:42 | 45.29481 | 15.67071 | 35953 ft | 447 kts | 329° |
| 2026-05-06 10:43 | 45.35123 | 15.63367 | 35956 ft | 446 kts | 329° |
| 2026-05-06 10:44 | 45.43529 | 15.57828 | 35951 ft | 446 kts | 329° |
| 2026-05-06 10:44 | 45.49157 | 15.54099 | 35950 ft | 446 kts | 329° |
| 2026-05-06 10:45 | 45.54771 | 15.50367 | 35950 ft | 445 kts | 329° |
| 2026-05-06 10:45 | 45.60375 | 15.46637 | 35950 ft | 444 kts | 329° |
| 2026-05-06 10:46 | 45.65945 | 15.42931 | 35951 ft | 444 kts | 329° |
| 2026-05-06 10:46 | 45.71548 | 15.39196 | 35965 ft | 444 kts | 329° |
| 2026-05-06 10:47 | 45.77146 | 15.35451 | 35969 ft | 444 kts | 329° |
| 2026-05-06 10:47 | 45.82830 | 15.31917 | 35970 ft | 447 kts | 332° |
| 2026-05-06 10:48 | 45.88583 | 15.28676 | 35970 ft | 448 kts | 333° |
| 2026-05-06 10:48 | 45.94377 | 15.25410 | 35974 ft | 447 kts | 332° |
| 2026-05-06 10:49 | 46.00142 | 15.22072 | 35967 ft | 446 kts | 332° |
| 2026-05-06 10:49 | 46.05882 | 15.18699 | 35965 ft | 445 kts | 332° |
| 2026-05-06 10:50 | 46.11582 | 15.15338 | 35966 ft | 446 kts | 332° |
| 2026-05-06 10:50 | 46.17318 | 15.11956 | 35967 ft | 445 kts | 332° |
| 2026-05-06 10:51 | 46.23044 | 15.08576 | 35951 ft | 444 kts | 332° |
| 2026-05-06 10:51 | 46.28764 | 15.05202 | 35959 ft | 444 kts | 332° |
| 2026-05-06 10:52 | 46.34442 | 15.01843 | 35956 ft | 444 kts | 332° |
| 2026-05-06 10:52 | 46.40160 | 14.98451 | 35970 ft | 445 kts | 331° |
| 2026-05-06 10:53 | 46.45893 | 14.95031 | 35947 ft | 446 kts | 331° |
| 2026-05-06 10:53 | 46.51629 | 14.91622 | 35942 ft | 445 kts | 331° |
| 2026-05-06 10:54 | 46.57323 | 14.88225 | 35943 ft | 446 kts | 331° |
| 2026-05-06 10:54 | 46.63060 | 14.84795 | 35947 ft | 446 kts | 331° |
| 2026-05-06 10:55 | 46.68790 | 14.81362 | 35930 ft | 445 kts | 331° |
| 2026-05-06 10:55 | 46.74517 | 14.77915 | 35931 ft | 446 kts | 331° |
| 2026-05-06 10:56 | 46.80266 | 14.74434 | 35928 ft | 448 kts | 331° |
| 2026-05-06 10:56 | 46.85991 | 14.70971 | 35933 ft | 448 kts | 330° |
| 2026-05-06 10:57 | 46.91748 | 14.67483 | 35921 ft | 448 kts | 330° |
| 2026-05-06 10:57 | 46.97503 | 14.63997 | 35918 ft | 448 kts | 330° |
| 2026-05-06 10:58 | 47.01960 | 14.61289 | 35917 ft | 448 kts | 330° |